EKKA/KRP METAR and TAF weather

Enter ICAO airport designator
Station Type Date Time Source
EKKA METAR 2018/12/12 22:50 UTC NOAA

EKKA 122250Z AUTO 08008KT 9999NDV OVC017/// 02/M01 Q1031


Station Type Date Time Source
EKKA Decoded METAR 2018/12/12 22:50 UTC NOAA

Karup, Denmark (EKKA) 56-18N 009-07E 53M
Dec 12, 2018 - 05:50 PM EST / 2018.12.12 2250 UTC
Wind: from the E (080 degrees) at 9 MPH (8 KT):0
Sky conditions: overcast
Temperature: 35 F (2 C)
Windchill: 28 F (-2 C):1
Dew Point: 30 F (-1 C)
Relative Humidity: 80%
Pressure (altimeter): 30.45 in. Hg (1031 hPa)
ob: EKKA 122250Z AUTO 08008KT 9999NDV OVC017/// 02/M01 Q1031
cycle: 23

Station Type Date Time Source
EKKA TAF 2018/12/12 21:31 UTC NOAA

TAF EKKA 122008Z 1221/1318 08007KT 9999 BKN020
TEMPO 1222/1309 BKN012 PROB40 1312/1316 5000 -SHRASN BKN012TCU


Example: see airport list